createdAt,value
2019-06-07T00:01:23.071Z,101280.38
2019-06-07T00:04:27.379Z,101272.31
2019-06-07T00:07:31.691Z,101288.26
2019-06-07T00:10:37.105Z,101295.70
2019-06-07T00:13:41.676Z,101298.77
2019-06-07T00:16:45.986Z,101293.38
2019-06-07T00:19:50.556Z,101300.12
2019-06-07T00:22:55.030Z,101300.22
2019-06-07T00:25:59.331Z,101304.89
2019-06-07T00:29:03.722Z,101304.89
2019-06-07T00:32:09.268Z,101297.34
2019-06-07T00:35:15.483Z,101301.79
2019-06-07T00:38:21.895Z,101304.45
2019-06-07T00:41:26.061Z,101304.89
2019-06-07T00:44:30.380Z,101307.58
2019-06-07T00:47:34.719Z,101317.23
2019-06-07T00:50:39.024Z,101315.75
2019-06-07T00:53:43.316Z,101305.97
2019-06-07T00:56:47.636Z,101316.26
2019-06-07T00:59:52.037Z,101316.26
2019-06-07T01:02:56.349Z,101303.91
2019-06-07T01:06:00.643Z,101303.91
2019-06-07T01:09:07.560Z,101307.69
2019-06-07T01:12:13.814Z,101303.69
2019-06-07T01:15:28.545Z,101299.25
2019-06-07T01:18:38.213Z,101309.08
2019-06-07T01:21:36.333Z,101308.98
2019-06-07T01:24:40.638Z,101308.31
2019-06-07T01:27:44.975Z,101316.78
2019-06-07T01:30:49.224Z,101317.84
2019-06-07T01:33:53.542Z,101314.23
2019-06-07T01:36:57.832Z,101314.23
2019-06-07T01:40:02.212Z,101300.98
2019-06-07T01:43:06.506Z,101300.98
2019-06-07T01:46:11.900Z,101309.73
2019-06-07T01:49:17.112Z,101306.88
2019-06-07T01:52:24.841Z,101312.72
2019-06-07T01:55:32.622Z,101305.16
2019-06-07T01:58:35.009Z,101310.39
2019-06-07T02:01:39.392Z,101312.89
2019-06-07T02:04:43.716Z,101309.82
2019-06-07T02:07:51.610Z,101307.22
2019-06-07T02:10:55.928Z,101293.36
2019-06-07T02:14:00.238Z,101293.36
2019-06-07T02:17:04.655Z,101293.47
2019-06-07T02:20:09.639Z,101293.47
2019-06-07T02:23:13.983Z,101303.59
2019-06-07T02:26:20.438Z,101303.02
2019-06-07T02:29:25.449Z,101297.95
2019-06-07T02:32:34.670Z,101296.34
2019-06-07T02:35:40.326Z,101285.28
2019-06-07T02:38:43.080Z,101292.36
2019-06-07T02:41:47.431Z,101288.51
2019-06-07T02:44:52.917Z,101294.96
2019-06-07T02:47:57.378Z,101290.63
2019-06-07T02:51:01.674Z,101280.50
2019-06-07T02:54:06.243Z,101280.63
2019-06-07T02:57:10.553Z,101281.02
2019-06-07T03:00:41.757Z,101280.90
2019-06-07T03:03:22.727Z,101280.90
2019-06-07T03:06:31.836Z,101281.33
2019-06-07T03:09:37.218Z,101291.58
2019-06-07T03:12:43.070Z,101291.58
2019-06-07T03:15:50.163Z,101283.17
2019-06-07T03:19:04.895Z,101280.45
2019-06-07T03:22:09.184Z,101278.67
2019-06-07T03:25:13.486Z,101286.23
2019-06-07T03:28:17.797Z,101278.61
2019-06-07T03:31:22.097Z,101285.28
2019-06-07T03:34:28.885Z,101287.17
2019-06-07T03:37:37.577Z,101282.86
2019-06-07T03:40:40.199Z,101282.86
2019-06-07T03:43:44.687Z,101280.30
2019-06-07T03:46:49.116Z,101277.14
2019-06-07T03:49:53.519Z,101278.63
2019-06-07T03:52:57.826Z,101274.19
2019-06-07T03:56:02.285Z,101269.69
2019-06-07T03:59:06.650Z,101279.86
2019-06-07T04:02:10.959Z,101285.13
2019-06-07T04:05:15.356Z,101295.13
2019-06-07T04:08:19.664Z,101296.44
2019-06-07T04:11:25.092Z,101289.70
2019-06-07T04:14:32.833Z,101289.70
2019-06-07T04:17:45.388Z,101288.05
2019-06-07T04:20:45.211Z,101278.77
2019-06-07T04:23:49.522Z,101302.33
2019-06-07T04:26:53.829Z,101307.99
2019-06-07T04:30:07.195Z,101315.92
2019-06-07T04:33:04.166Z,101316.32
2019-06-07T04:36:10.181Z,101319.88
2019-06-07T04:39:14.679Z,101309.00
2019-06-07T04:42:21.217Z,101320.12
2019-06-07T04:45:36.275Z,101312.06
2019-06-07T04:48:35.998Z,101312.06
2019-06-07T04:51:43.461Z,101313.08
2019-06-07T04:54:47.798Z,101308.73
2019-06-07T04:57:52.165Z,101300.97
2019-06-07T05:01:03.038Z,101300.97
2019-06-07T05:04:02.759Z,101307.14
2019-06-07T05:07:08.956Z,101304.02
2019-06-07T05:10:14.444Z,101304.02
2019-06-07T05:13:18.865Z,101312.13
2019-06-07T05:16:24.973Z,101312.13
2019-06-07T05:19:30.588Z,101320.65
2019-06-07T05:22:40.845Z,101320.65
2019-06-07T05:25:44.738Z,101320.63
2019-06-07T05:28:49.312Z,101326.59
2019-06-07T05:31:54.119Z,101332.09
2019-06-07T05:34:58.542Z,101314.91
2019-06-07T05:38:03.059Z,101314.91
2019-06-07T05:41:08.104Z,101318.15
2019-06-07T05:44:14.998Z,101313.88
2019-06-07T05:47:19.039Z,101316.38
2019-06-07T05:50:38.920Z,101316.81
2019-06-07T05:53:29.452Z,101316.84
2019-06-07T05:56:35.715Z,101316.84
2019-06-07T05:59:44.305Z,101284.81
2019-06-07T06:03:04.347Z,101294.72
2019-06-07T06:05:55.604Z,101294.72
2019-06-07T06:09:13.493Z,101284.11
2019-06-07T06:12:09.544Z,101269.17
2019-06-07T06:15:14.272Z,101269.17
2019-06-07T06:18:18.664Z,101268.39
2019-06-07T06:21:23.052Z,101271.44
2019-06-07T06:24:27.448Z,101260.66
2019-06-07T06:30:38.237Z,101263.56
2019-06-07T06:33:43.440Z,101272.09
2019-06-07T06:36:50.353Z,101280.52
2019-06-07T06:39:54.934Z,101284.70
2019-06-07T06:42:59.517Z,101291.43
2019-06-07T06:46:04.069Z,101298.03
2019-06-07T06:49:08.518Z,101301.00
2019-06-07T06:52:12.906Z,101310.20
2019-06-07T06:55:18.574Z,101317.02
2019-06-07T06:58:22.870Z,101319.00
2019-06-07T07:01:27.214Z,101310.78
2019-06-07T07:04:32.144Z,101322.92
2019-06-07T07:07:37.028Z,101319.69
2019-06-07T07:10:43.341Z,101325.81
2019-06-07T07:13:49.876Z,101326.19
2019-06-07T07:16:56.507Z,101330.00
2019-06-07T07:20:01.215Z,101334.80
2019-06-07T07:23:05.830Z,101339.92
2019-06-07T07:26:10.231Z,101345.31
2019-06-07T07:29:14.592Z,101341.11
2019-06-07T07:32:18.921Z,101331.80
2019-06-07T07:35:23.776Z,101329.48
2019-06-07T07:38:28.344Z,101324.77
2019-06-07T07:41:32.731Z,101322.48
2019-06-07T07:44:37.096Z,101325.88
2019-06-07T07:47:58.335Z,101321.85
2019-06-07T07:50:49.807Z,101317.94
2019-06-07T07:54:09.382Z,101318.23
2019-06-07T07:57:01.169Z,101322.05
2019-06-07T08:00:48.854Z,101317.05
2019-06-07T08:03:12.633Z,101318.21
2019-06-07T08:06:17.195Z,101319.97
2019-06-07T08:09:21.604Z,101317.21
2019-06-07T08:12:26.272Z,101315.20
2019-06-07T08:15:30.712Z,101313.20
2019-06-07T08:18:35.176Z,101313.52
2019-06-07T08:21:39.574Z,101311.92
2019-06-07T08:24:43.945Z,101302.75
2019-06-07T08:27:49.509Z,101303.14
2019-06-07T08:31:02.420Z,101305.83
2019-06-07T08:34:00.790Z,101315.86
2019-06-07T08:37:05.422Z,101308.39
2019-06-07T08:40:12.407Z,101310.81
2019-06-07T08:43:21.030Z,101301.30
2019-06-07T08:46:24.410Z,101309.20
2019-06-07T08:49:30.552Z,101311.61
2019-06-07T08:52:34.867Z,101313.71
2019-06-07T08:55:39.226Z,101316.66
2019-06-07T08:58:43.544Z,101315.08
2019-06-07T09:01:48.841Z,101308.90
2019-06-07T09:04:56.420Z,101307.80
2019-06-07T09:08:23.583Z,101308.44
2019-06-07T09:11:10.893Z,101312.89
2019-06-07T09:14:11.407Z,101312.56
2019-06-07T09:17:15.720Z,101320.34
2019-06-07T09:20:36.315Z,101314.66
2019-06-07T09:23:28.132Z,101314.44
2019-06-07T09:26:32.932Z,101315.92
2019-06-07T09:29:38.575Z,101310.17
2019-06-07T09:32:42.902Z,101296.81
2019-06-07T09:35:48.634Z,101295.02
2019-06-07T09:38:54.473Z,101298.31
2019-06-07T09:42:01.596Z,101297.93
2019-06-07T09:45:08.859Z,101302.84
2019-06-07T09:48:16.126Z,101296.99
2019-06-07T09:51:20.399Z,101302.13
2019-06-07T09:55:03.044Z,101292.39
2019-06-07T09:57:31.358Z,101283.20
2019-06-07T10:00:42.115Z,101279.65
2019-06-07T10:03:43.208Z,101285.75
2019-06-07T10:06:47.513Z,101282.09
2019-06-07T10:12:59.434Z,101284.69
2019-06-07T10:16:04.778Z,101280.42
2019-06-07T10:19:09.943Z,101259.35
2019-06-07T10:22:14.398Z,101250.63
2019-06-07T10:25:18.718Z,101245.30
2019-06-07T10:28:23.307Z,101247.65
2019-06-07T10:31:29.662Z,101252.19
2019-06-07T10:34:34.055Z,101255.13
2019-06-07T10:37:38.364Z,101249.06
2019-06-07T10:40:42.834Z,101244.45
2019-06-07T10:43:47.119Z,101238.06
2019-06-07T10:46:51.441Z,101230.02
2019-06-07T10:49:55.749Z,101231.13
2019-06-07T10:53:00.045Z,101230.80
2019-06-07T10:56:04.898Z,101230.84
2019-06-07T10:59:09.822Z,101227.58
2019-06-07T11:02:15.317Z,101228.78
2019-06-07T11:05:19.805Z,101228.33
2019-06-07T11:08:24.119Z,101227.92
2019-06-07T11:11:28.570Z,101234.04
2019-06-07T11:14:33.045Z,101224.88
2019-06-07T11:17:37.347Z,101216.64
2019-06-07T11:20:41.650Z,101206.13
2019-06-07T11:23:45.940Z,101198.30
2019-06-07T11:26:50.298Z,101202.14
2019-06-07T11:29:54.841Z,101202.23
2019-06-07T11:32:59.361Z,101204.07
2019-06-07T11:36:08.649Z,101200.19
2019-06-07T11:39:15.196Z,101198.92
2019-06-07T11:42:20.201Z,101202.84
2019-06-07T11:45:24.518Z,101202.66
2019-06-07T11:48:29.937Z,101197.53
2019-06-07T11:51:35.327Z,101180.68
2019-06-07T11:54:39.908Z,101177.84
2019-06-07T11:57:44.336Z,101168.86
2019-06-07T12:00:48.696Z,101176.03
2019-06-07T12:03:53.102Z,101170.30
2019-06-07T12:06:57.453Z,101166.20
2019-06-07T12:10:03.290Z,101163.99
2019-06-07T12:13:08.357Z,101163.50
2019-06-07T12:16:13.541Z,101164.02
2019-06-07T12:19:19.885Z,101154.53
2019-06-07T12:22:24.285Z,101153.34
2019-06-07T12:25:28.899Z,101160.91
2019-06-07T12:28:33.308Z,101162.87
2019-06-07T12:31:37.629Z,101154.10
2019-06-07T12:34:41.949Z,101155.18
2019-06-07T12:37:46.303Z,101147.78
2019-06-07T12:40:57.692Z,101145.95
2019-06-07T12:43:59.144Z,101141.34
2019-06-07T12:47:02.987Z,101133.74
2019-06-07T12:50:08.160Z,101132.57
2019-06-07T12:53:13.626Z,101118.25
2019-06-07T12:56:17.990Z,101115.92
2019-06-07T12:59:22.379Z,101107.45
2019-06-07T13:02:26.683Z,101107.38
2019-06-07T13:05:31.079Z,101106.69
2019-06-07T13:08:35.475Z,101108.25
2019-06-07T13:11:39.879Z,101107.92
2019-06-07T13:14:44.394Z,101102.14
2019-06-07T13:17:50.448Z,101099.78
2019-06-07T13:20:55.667Z,101101.30
2019-06-07T13:24:00.286Z,101098.53
2019-06-07T13:27:06.083Z,101089.14
2019-06-07T13:30:11.455Z,101091.27
2019-06-07T13:33:19.069Z,101088.11
2019-06-07T13:36:24.368Z,101092.25
2019-06-07T13:39:29.833Z,101090.99
2019-06-07T13:42:34.256Z,101087.22
2019-06-07T13:45:38.626Z,101089.25
2019-06-07T13:48:42.990Z,101091.47
2019-06-07T13:51:49.092Z,101089.42
2019-06-07T13:54:53.477Z,101080.34
2019-06-07T13:57:57.775Z,101071.13
2019-06-07T14:01:02.154Z,101054.23
2019-06-07T14:04:06.447Z,101058.27
2019-06-07T14:07:10.742Z,101066.63
2019-06-07T14:10:15.697Z,101065.05
2019-06-07T14:13:20.122Z,101057.20
2019-06-07T14:16:26.304Z,101048.20
2019-06-07T14:19:32.140Z,101052.12
2019-06-07T14:22:36.567Z,101053.58
2019-06-07T14:25:41.473Z,101041.35
2019-06-07T14:28:45.763Z,101028.73
2019-06-07T14:31:50.467Z,101032.72
2019-06-07T14:34:56.220Z,101037.00
2019-06-07T14:38:00.753Z,101030.32
2019-06-07T14:41:05.094Z,101038.48
2019-06-07T14:44:09.421Z,101027.72
2019-06-07T14:47:13.751Z,101023.43
2019-06-07T14:50:19.221Z,101026.64
2019-06-07T14:53:24.513Z,101033.76
2019-06-07T14:56:29.530Z,101033.59
2019-06-07T14:59:34.917Z,101043.82
2019-06-07T15:02:39.904Z,101032.75
2019-06-07T15:05:44.485Z,101042.00
2019-06-07T15:08:51.421Z,101035.84
2019-06-07T15:11:54.886Z,101039.32
2019-06-07T15:14:59.179Z,101047.39
2019-06-07T15:18:03.568Z,101031.88
2019-06-07T15:21:08.121Z,101021.23
2019-06-07T15:24:12.419Z,101023.35
2019-06-07T15:27:17.062Z,101016.44
2019-06-07T15:30:21.861Z,101016.09
2019-06-07T15:33:26.192Z,101002.34
2019-06-07T15:36:30.474Z,101003.98
2019-06-07T15:39:36.644Z,100995.78
2019-06-07T15:42:52.055Z,100984.80
2019-06-07T15:45:47.550Z,100978.25
2019-06-07T15:48:51.875Z,100975.28
2019-06-07T15:51:56.171Z,100964.52
2019-06-07T15:55:00.480Z,100974.81
2019-06-07T15:58:04.770Z,100967.94
2019-06-07T16:01:09.071Z,100969.27
2019-06-07T16:04:13.370Z,100965.67
2019-06-07T16:07:17.661Z,100966.39
2019-06-07T16:10:21.955Z,100972.23
2019-06-07T16:13:26.384Z,100971.31
2019-06-07T16:16:30.781Z,100964.92
2019-06-07T16:19:39.250Z,100968.97
2019-06-07T16:22:42.290Z,100968.53
2019-06-07T16:25:47.722Z,100950.59
2019-06-07T16:28:52.041Z,100937.63
2019-06-07T16:31:56.396Z,100933.24
2019-06-07T16:35:00.694Z,100925.40
2019-06-07T16:38:05.319Z,100924.72
2019-06-07T16:41:11.429Z,100919.80
2019-06-07T16:44:15.834Z,100921.88
2019-06-07T16:47:20.142Z,100916.77
2019-06-07T16:50:24.975Z,100920.07
2019-06-07T16:53:30.360Z,100916.34
2019-06-07T16:56:34.656Z,100919.30
2019-06-07T16:59:39.026Z,100913.88
2019-06-07T17:02:45.026Z,100923.94
2019-06-07T17:05:50.569Z,100919.34
2019-06-07T17:08:54.949Z,100918.52
2019-06-07T17:11:59.394Z,100919.40
2019-06-07T17:15:04.037Z,100909.53
2019-06-07T17:18:08.406Z,100904.87
2019-06-07T17:21:12.740Z,100884.58
2019-06-07T17:24:17.043Z,100880.89
2019-06-07T17:27:21.365Z,100880.50
2019-06-07T17:30:25.902Z,100883.31
2019-06-07T17:33:30.192Z,100882.75
2019-06-07T17:36:34.500Z,100882.55
2019-06-07T17:39:38.799Z,100881.30
2019-06-07T17:42:43.105Z,100885.83
2019-06-07T17:45:47.598Z,100867.92
2019-06-07T17:48:51.879Z,100863.63
2019-06-07T17:51:57.391Z,100861.59
2019-06-07T17:55:01.676Z,100859.61
2019-06-07T17:58:06.020Z,100858.95
2019-06-07T18:01:10.323Z,100852.44
2019-06-07T18:04:14.618Z,100854.88
2019-06-07T18:07:20.838Z,100847.37
2019-06-07T18:10:38.299Z,100842.70
2019-06-07T18:13:43.941Z,100837.47
2019-06-07T18:16:48.462Z,100831.72
2019-06-07T18:19:53.039Z,100835.89
2019-06-07T18:22:57.431Z,100831.28
2019-06-07T18:26:01.956Z,100825.44
2019-06-07T18:29:06.365Z,100823.54
2019-06-07T18:32:13.476Z,100816.67
2019-06-07T18:35:17.908Z,100811.62
2019-06-07T18:38:22.239Z,100807.13
2019-06-07T18:41:28.337Z,100812.06
2019-06-07T18:44:32.644Z,100814.77
2019-06-07T18:47:36.950Z,100825.16
2019-06-07T18:50:41.350Z,100837.13
2019-06-07T18:53:45.645Z,100831.83
2019-06-07T18:56:50.755Z,100835.45
2019-06-07T18:59:56.462Z,100837.58
2019-06-07T19:03:01.055Z,100843.98
2019-06-07T19:06:06.941Z,100834.23
2019-06-07T19:09:11.195Z,100830.08
2019-06-07T19:12:15.507Z,100819.44
2019-06-07T19:15:20.722Z,100808.91
2019-06-07T19:18:25.149Z,100807.58
2019-06-07T19:21:32.440Z,100806.06
2019-06-07T19:24:38.458Z,100812.55
2019-06-07T19:27:42.771Z,100814.44
2019-06-07T19:30:47.160Z,100819.80
2019-06-07T19:33:51.517Z,100823.83
2019-06-07T19:36:55.807Z,100817.03
2019-06-07T19:40:00.202Z,100821.20
2019-06-07T19:43:05.537Z,100807.78
2019-06-07T19:46:09.929Z,100809.06
2019-06-07T19:49:14.346Z,100802.97
2019-06-07T19:52:18.724Z,100807.61
2019-06-07T19:55:23.044Z,100815.03
2019-06-07T19:58:27.406Z,100824.36
2019-06-07T20:01:31.665Z,100824.70
2019-06-07T20:04:35.955Z,100833.77
2019-06-07T20:07:40.500Z,100833.23
2019-06-07T20:10:44.892Z,100826.36
2019-06-07T20:13:50.279Z,100831.81
2019-06-07T20:16:55.185Z,100823.98
2019-06-07T20:20:00.528Z,100818.72
2019-06-07T20:23:05.394Z,100830.95
2019-06-07T20:26:10.937Z,100827.15
2019-06-07T20:29:25.902Z,100833.71
2019-06-07T20:32:21.684Z,100846.91
2019-06-07T20:35:25.978Z,100839.72
2019-06-07T20:38:31.392Z,100831.18
2019-06-07T20:41:35.692Z,100828.36
2019-06-07T20:44:40.025Z,100814.91
2019-06-07T20:47:44.325Z,100814.67
2019-06-07T20:50:49.065Z,100818.15
2019-06-07T20:53:53.414Z,100817.92
2019-06-07T20:56:58.816Z,100809.56
2019-06-07T21:00:12.229Z,100785.08
2019-06-07T21:03:09.701Z,100746.58
2019-06-07T21:06:15.321Z,100757.88
2019-06-07T21:09:19.647Z,100776.22
2019-06-07T21:12:24.184Z,100782.30
2019-06-07T21:15:28.659Z,100770.67
2019-06-07T21:18:33.002Z,100769.73
2019-06-07T21:21:39.125Z,100775.25
2019-06-07T21:24:43.430Z,100773.83
2019-06-07T21:27:47.718Z,100780.57
2019-06-07T21:30:53.588Z,100771.88
2019-06-07T21:33:57.907Z,100775.65
2019-06-07T21:37:05.565Z,100777.06
2019-06-07T21:40:10.550Z,100779.35
2019-06-07T21:43:14.873Z,100783.93
2019-06-07T21:46:20.643Z,100766.64
2019-06-07T21:49:25.238Z,100764.64
2019-06-07T21:52:29.687Z,100761.72
2019-06-07T21:55:34.013Z,100765.97
2019-06-07T21:58:38.408Z,100759.91
2019-06-07T22:01:42.771Z,100731.33
2019-06-07T22:04:47.110Z,100712.22
2019-06-07T22:07:51.472Z,100708.96
2019-06-07T22:10:57.263Z,100722.00
2019-06-07T22:14:04.156Z,100713.48
2019-06-07T22:17:10.509Z,100718.54
2019-06-07T22:20:15.142Z,100715.13
2019-06-07T22:23:19.514Z,100723.41
2019-06-07T22:26:23.822Z,100730.69
2019-06-07T22:29:28.173Z,100721.69
2019-06-07T22:32:32.463Z,100713.64
2019-06-07T22:35:38.210Z,100720.02
2019-06-07T22:38:42.512Z,100727.28
2019-06-07T22:41:46.811Z,100729.33
2019-06-07T22:44:51.129Z,100744.73
2019-06-07T22:47:55.529Z,100745.92
2019-06-07T22:51:01.501Z,100748.91
2019-06-07T22:54:05.842Z,100737.45
2019-06-07T22:57:19.840Z,100731.52
2019-06-07T23:00:25.468Z,100730.92
2019-06-07T23:03:29.762Z,100734.20
2019-06-07T23:06:34.175Z,100740.14
2019-06-07T23:09:38.483Z,100745.81
2019-06-07T23:12:42.794Z,100754.44
2019-06-07T23:15:47.128Z,100785.39
2019-06-07T23:18:51.431Z,100794.96
2019-06-07T23:21:55.730Z,100785.52
2019-06-07T23:25:00.027Z,100793.44
2019-06-07T23:28:04.391Z,100798.83
2019-06-07T23:31:08.697Z,100808.99
2019-06-07T23:34:13.059Z,100809.08
2019-06-07T23:37:17.313Z,100835.05
2019-06-07T23:40:21.686Z,100837.19
2019-06-07T23:43:26.059Z,100822.52
2019-06-07T23:46:30.506Z,100811.94
2019-06-07T23:49:34.806Z,100822.73
2019-06-07T23:52:39.433Z,100817.99
2019-06-07T23:55:47.498Z,100793.56
2019-06-07T23:58:51.811Z,100786.52
